createdAt,value
2022-10-08T00:01:02.643Z,14.43
2022-10-08T00:03:32.413Z,16.00
2022-10-08T00:06:12.526Z,14.97
2022-10-08T00:08:41.990Z,14.80
2022-10-08T00:11:15.313Z,18.03
2022-10-08T00:13:44.797Z,16.17
2022-10-08T00:16:27.463Z,15.83
2022-10-08T00:18:58.338Z,14.83
2022-10-08T00:21:36.781Z,16.63
2022-10-08T00:24:05.991Z,14.80
2022-10-08T00:26:35.903Z,16.10
2022-10-08T00:29:06.940Z,19.63
2022-10-08T00:31:36.932Z,16.33
2022-10-08T00:34:07.014Z,14.83
2022-10-08T00:36:34.843Z,14.87
2022-10-08T00:39:11.371Z,15.03
2022-10-08T00:41:39.025Z,15.50
2022-10-08T00:44:43.046Z,14.90
2022-10-08T00:47:50.161Z,14.33
2022-10-08T00:50:29.829Z,15.57
2022-10-08T00:53:01.230Z,14.90
2022-10-08T00:55:29.193Z,13.27
2022-10-08T00:58:19.458Z,15.07
2022-10-08T01:00:47.844Z,15.07
2022-10-08T01:03:15.081Z,15.33
2022-10-08T01:06:01.545Z,13.93
2022-10-08T01:08:41.952Z,14.73
2022-10-08T01:11:47.546Z,14.50
2022-10-08T01:14:14.155Z,14.50
2022-10-08T01:17:08.046Z,16.17
2022-10-08T01:20:29.294Z,15.17
2022-10-08T01:23:33.053Z,15.73
2022-10-08T01:26:31.388Z,16.73
2022-10-08T01:29:21.338Z,18.27
2022-10-08T01:31:54.071Z,17.73
2022-10-08T01:34:40.677Z,16.13
2022-10-08T01:37:12.701Z,17.07
2022-10-08T01:39:41.024Z,17.00
2022-10-08T01:42:10.237Z,16.73
2022-10-08T01:44:51.893Z,17.30
2022-10-08T01:47:23.941Z,18.30
2022-10-08T01:50:01.447Z,16.60
2022-10-08T01:52:37.449Z,17.20
2022-10-08T01:55:10.810Z,18.73
2022-10-08T01:57:39.202Z,18.23
2022-10-08T02:00:12.429Z,18.83
2022-10-08T02:02:39.852Z,17.03
2022-10-08T02:05:07.297Z,16.47
2022-10-08T02:07:38.314Z,17.23
2022-10-08T02:10:05.012Z,17.47
2022-10-08T02:12:32.392Z,16.07
2022-10-08T02:14:59.678Z,17.70
2022-10-08T02:17:58.508Z,16.33
2022-10-08T02:20:34.904Z,19.37
2022-10-08T02:23:13.487Z,16.30
2022-10-08T02:26:05.844Z,16.30
2022-10-08T02:28:47.333Z,17.93
2022-10-08T02:31:23.355Z,15.67
2022-10-08T02:34:14.843Z,17.17
2022-10-08T02:36:45.453Z,16.17
2022-10-08T02:39:14.618Z,18.00
2022-10-08T02:41:44.949Z,17.70
2022-10-08T02:44:21.540Z,17.47
2022-10-08T02:46:52.624Z,16.77
2022-10-08T02:49:27.107Z,16.27
2022-10-08T02:51:55.275Z,15.93
2022-10-08T02:54:23.468Z,17.10
2022-10-08T02:56:53.050Z,16.53
2022-10-08T02:59:21.680Z,17.23
2022-10-08T03:01:58.325Z,17.20
2022-10-08T03:04:42.916Z,17.83
2022-10-08T03:07:10.279Z,17.27
2022-10-08T03:09:49.815Z,16.70
2022-10-08T03:12:16.558Z,18.73
2022-10-08T03:14:47.812Z,16.63
2022-10-08T03:17:19.771Z,16.30
2022-10-08T03:19:46.453Z,16.90
2022-10-08T03:22:13.181Z,15.37
2022-10-08T03:24:39.810Z,18.33
2022-10-08T03:27:06.528Z,17.10
2022-10-08T03:29:33.242Z,16.80
2022-10-08T03:31:59.922Z,16.93
2022-10-08T03:34:26.739Z,16.43
2022-10-08T03:36:53.466Z,16.30
2022-10-08T03:39:20.156Z,17.03
2022-10-08T03:41:46.818Z,16.90
2022-10-08T03:44:13.562Z,15.97
2022-10-08T03:46:40.419Z,17.10
2022-10-08T03:49:07.246Z,16.60
2022-10-08T03:51:34.035Z,16.63
2022-10-08T03:54:00.725Z,17.37
2022-10-08T03:56:27.481Z,16.20
2022-10-08T03:59:00.384Z,22.43
2022-10-08T04:01:28.583Z,18.83
2022-10-08T04:03:55.495Z,15.33
2022-10-08T04:06:22.549Z,16.03
2022-10-08T04:08:49.186Z,16.97
2022-10-08T04:11:19.301Z,16.70
2022-10-08T04:13:46.107Z,15.43
2022-10-08T04:16:17.891Z,16.10
2022-10-08T04:18:45.874Z,15.50
2022-10-08T04:21:17.948Z,17.30
2022-10-08T04:23:45.736Z,16.17
2022-10-08T04:26:14.076Z,15.47
2022-10-08T04:28:44.227Z,16.87
2022-10-08T04:31:13.817Z,14.67
2022-10-08T04:33:40.550Z,16.30
2022-10-08T04:36:12.517Z,16.10
2022-10-08T04:38:39.326Z,14.83
2022-10-08T04:41:11.599Z,14.90
2022-10-08T04:43:39.851Z,15.03
2022-10-08T04:46:09.198Z,16.77
2022-10-08T04:48:36.139Z,15.40
2022-10-08T04:51:10.093Z,16.70
2022-10-08T04:53:37.671Z,14.67
2022-10-08T04:56:13.976Z,14.67
2022-10-08T04:58:40.839Z,16.27
2022-10-08T05:01:10.513Z,15.77
2022-10-08T05:03:43.105Z,14.20
2022-10-08T05:06:10.748Z,15.60
2022-10-08T05:08:37.762Z,15.83
2022-10-08T05:11:04.847Z,15.33
2022-10-08T05:13:31.896Z,16.27
2022-10-08T05:16:07.847Z,16.17
2022-10-08T05:18:35.804Z,15.17
2022-10-08T05:21:23.903Z,15.10
2022-10-08T05:23:58.624Z,14.37
2022-10-08T05:26:46.558Z,15.77
2022-10-08T05:29:14.606Z,14.60
2022-10-08T05:31:41.253Z,16.47
2022-10-08T05:34:07.897Z,15.37
2022-10-08T05:36:34.857Z,17.37
2022-10-08T05:39:03.974Z,15.40
2022-10-08T05:41:33.532Z,15.97
2022-10-08T05:44:03.594Z,15.03
2022-10-08T05:46:33.213Z,15.10
2022-10-08T05:49:02.727Z,16.53
2022-10-08T05:51:30.777Z,15.73
2022-10-08T05:54:00.718Z,15.40
2022-10-08T05:56:28.917Z,16.67
2022-10-08T05:58:55.737Z,16.53
2022-10-08T06:01:25.966Z,15.80
2022-10-08T06:03:57.616Z,16.17
2022-10-08T06:06:24.876Z,15.63
2022-10-08T06:09:00.850Z,17.50
2022-10-08T06:11:29.389Z,15.17
2022-10-08T06:13:57.954Z,17.10
2022-10-08T06:16:24.864Z,15.50
2022-10-08T06:18:51.989Z,14.87
2022-10-08T06:21:24.384Z,13.87
2022-10-08T06:23:56.537Z,15.80
2022-10-08T06:26:27.307Z,14.20
2022-10-08T06:28:57.881Z,14.93
2022-10-08T06:31:25.358Z,14.77
2022-10-08T06:33:56.700Z,13.77
2022-10-08T06:36:26.714Z,13.50
2022-10-08T06:38:58.187Z,14.63
2022-10-08T06:41:26.703Z,15.57
2022-10-08T06:43:54.320Z,13.50
2022-10-08T06:46:21.417Z,15.97
2022-10-08T06:48:48.682Z,16.37
2022-10-08T06:51:17.820Z,14.80
2022-10-08T06:53:47.681Z,13.37
2022-10-08T06:56:15.665Z,16.00
2022-10-08T06:58:43.818Z,14.60
2022-10-08T07:01:17.134Z,14.70
2022-10-08T07:03:48.007Z,13.37
2022-10-08T07:06:14.675Z,14.87
2022-10-08T07:08:41.317Z,14.37
2022-10-08T07:11:10.865Z,14.50
2022-10-08T07:13:38.410Z,20.63
2022-10-08T07:16:08.027Z,12.93
2022-10-08T07:18:35.975Z,13.33
2022-10-08T07:21:03.022Z,11.97
2022-10-08T07:23:30.436Z,13.40
2022-10-08T07:25:59.313Z,12.27
2022-10-08T07:28:28.293Z,13.93
2022-10-08T07:30:55.103Z,12.70
2022-10-08T07:33:21.982Z,12.57
2022-10-08T07:35:48.756Z,12.23
2022-10-08T07:38:18.559Z,11.27
2022-10-08T07:40:46.994Z,11.77
2022-10-08T07:43:17.660Z,11.30
2022-10-08T07:45:46.473Z,10.53
2022-10-08T07:48:13.336Z,15.40
2022-10-08T07:50:40.067Z,9.00
2022-10-08T07:53:07.319Z,9.60
2022-10-08T07:55:34.038Z,9.00
2022-10-08T07:58:00.720Z,8.63
2022-10-08T08:00:27.468Z,8.80
2022-10-08T08:02:54.510Z,12.57
2022-10-08T08:05:21.225Z,10.10
2022-10-08T08:07:53.061Z,6.57
2022-10-08T08:10:19.969Z,6.57
2022-10-08T08:12:46.816Z,9.00
2022-10-08T08:15:13.690Z,9.70
2022-10-08T08:17:40.644Z,7.40
2022-10-08T08:20:07.959Z,8.63
2022-10-08T08:22:34.706Z,9.10
2022-10-08T08:25:01.428Z,11.40
2022-10-08T08:27:28.163Z,11.33
2022-10-08T08:29:54.908Z,5.67
2022-10-08T08:32:26.140Z,9.27
2022-10-08T08:34:55.117Z,7.87
2022-10-08T08:37:21.906Z,8.90
2022-10-08T08:39:48.620Z,6.60
2022-10-08T08:42:43.201Z,8.30
2022-10-08T08:45:45.402Z,8.83
2022-10-08T08:48:25.313Z,9.20
2022-10-08T08:50:55.761Z,6.87
2022-10-08T08:53:23.462Z,6.87
2022-10-08T08:55:54.204Z,8.10
2022-10-08T08:58:37.664Z,11.43
2022-10-08T09:01:10.339Z,6.90
2022-10-08T09:03:49.130Z,6.93
2022-10-08T09:06:19.898Z,9.17
2022-10-08T09:09:14.398Z,9.07
2022-10-08T09:11:44.123Z,5.57
2022-10-08T09:14:11.801Z,4.37
2022-10-08T09:16:39.447Z,7.73
2022-10-08T09:19:06.659Z,5.47
2022-10-08T09:21:34.513Z,5.10
2022-10-08T09:24:01.743Z,5.03
2022-10-08T09:26:35.085Z,5.40
2022-10-08T09:29:04.739Z,7.83
2022-10-08T09:31:47.943Z,7.83
2022-10-08T09:34:17.661Z,8.30
2022-10-08T09:37:02.438Z,10.17
2022-10-08T09:39:31.741Z,7.13
2022-10-08T09:42:04.369Z,7.30
2022-10-08T09:44:44.407Z,4.40
2022-10-08T09:47:16.707Z,5.17
2022-10-08T09:49:44.989Z,9.27
2022-10-08T09:52:30.369Z,7.50
2022-10-08T09:55:09.730Z,5.67
2022-10-08T09:57:49.985Z,7.37
2022-10-08T10:01:14.284Z,5.57
2022-10-08T10:03:53.627Z,7.20
2022-10-08T10:06:35.310Z,5.90
2022-10-08T10:09:11.361Z,7.50
2022-10-08T10:11:39.888Z,7.43
2022-10-08T10:14:23.112Z,6.63
2022-10-08T10:16:56.858Z,6.30
2022-10-08T10:19:29.380Z,8.47
2022-10-08T10:22:05.106Z,9.73
2022-10-08T10:24:45.776Z,11.83
2022-10-08T10:27:44.065Z,10.77
2022-10-08T10:30:18.663Z,8.23
2022-10-08T10:33:16.507Z,7.40
2022-10-08T10:35:53.293Z,9.73
2022-10-08T10:38:23.981Z,5.03
2022-10-08T10:41:19.576Z,8.97
2022-10-08T10:43:49.294Z,7.53
2022-10-08T10:46:41.311Z,7.17
2022-10-08T10:49:22.327Z,6.83
2022-10-08T10:52:03.449Z,9.70
2022-10-08T10:54:57.667Z,5.80
2022-10-08T10:57:49.259Z,4.83
2022-10-08T11:00:52.509Z,6.93
2022-10-08T11:03:34.309Z,4.60
2022-10-08T11:06:17.913Z,7.63
2022-10-08T11:08:50.722Z,7.13
2022-10-08T11:11:32.938Z,7.30
2022-10-08T11:14:16.809Z,8.00
2022-10-08T11:17:10.427Z,9.00
2022-10-08T11:20:11.782Z,7.50
2022-10-08T11:23:02.742Z,5.33
2022-10-08T11:25:40.406Z,6.47
2022-10-08T11:28:41.061Z,5.70
2022-10-08T11:31:13.814Z,6.23
2022-10-08T11:33:41.875Z,7.00
2022-10-08T11:36:38.240Z,7.53
2022-10-08T11:39:20.848Z,4.90
2022-10-08T11:42:00.178Z,5.57
2022-10-08T11:44:27.397Z,5.00
2022-10-08T11:46:54.122Z,6.10
2022-10-08T11:49:20.787Z,7.40
2022-10-08T11:51:53.954Z,8.77
2022-10-08T11:54:28.341Z,8.50
2022-10-08T11:57:13.366Z,4.57
2022-10-08T11:59:43.165Z,9.27
2022-10-08T12:02:29.647Z,4.50
2022-10-08T12:04:59.203Z,4.00
2022-10-08T12:07:37.478Z,5.20
2022-10-08T12:10:06.994Z,5.67
2022-10-08T12:12:52.574Z,5.43
2022-10-08T12:15:27.625Z,8.97
2022-10-08T12:18:26.013Z,4.27
2022-10-08T12:21:15.982Z,4.23
2022-10-08T12:23:43.902Z,4.00
2022-10-08T12:26:15.653Z,6.37
2022-10-08T12:28:42.470Z,4.27
2022-10-08T12:31:19.125Z,5.53
2022-10-08T12:34:02.745Z,5.70
2022-10-08T12:36:41.318Z,3.30
2022-10-08T12:39:35.001Z,4.23
2022-10-08T12:42:01.673Z,3.27
2022-10-08T12:44:39.477Z,5.70
2022-10-08T12:47:14.074Z,3.50
2022-10-08T12:49:47.123Z,4.50
2022-10-08T12:52:15.974Z,4.67
2022-10-08T12:54:50.399Z,3.70
2022-10-08T12:57:30.166Z,4.83
2022-10-08T12:59:59.714Z,4.10
2022-10-08T13:02:32.335Z,4.10
2022-10-08T13:04:59.103Z,2.90
2022-10-08T13:07:31.753Z,3.57
2022-10-08T13:10:01.069Z,4.17
2022-10-08T13:12:28.529Z,4.17
2022-10-08T13:15:05.886Z,3.80
2022-10-08T13:17:35.541Z,5.83
2022-10-08T13:20:08.245Z,5.93
2022-10-08T13:22:34.927Z,5.10
2022-10-08T13:25:01.792Z,5.10
2022-10-08T13:27:32.589Z,2.67
2022-10-08T13:30:00.776Z,3.30
2022-10-08T13:32:35.353Z,5.73
2022-10-08T13:35:04.865Z,2.57
2022-10-08T13:37:34.841Z,4.57
2022-10-08T13:40:23.669Z,3.83
2022-10-08T13:42:56.401Z,3.40
2022-10-08T13:45:26.126Z,3.23
2022-10-08T13:47:53.740Z,2.43
2022-10-08T13:50:21.446Z,4.73
2022-10-08T13:52:54.734Z,4.33
2022-10-08T13:55:28.672Z,3.50
2022-10-08T13:57:57.497Z,4.03
2022-10-08T14:00:24.588Z,3.17
2022-10-08T14:02:51.911Z,7.80
2022-10-08T14:05:19.682Z,5.93
2022-10-08T14:07:49.221Z,4.80
2022-10-08T14:10:18.221Z,4.67
2022-10-08T14:12:45.392Z,7.37
2022-10-08T14:15:13.367Z,4.70
2022-10-08T14:17:40.093Z,3.70
2022-10-08T14:20:07.420Z,5.10
2022-10-08T14:22:38.749Z,4.27
2022-10-08T14:25:17.859Z,3.57
2022-10-08T14:27:44.631Z,3.80
2022-10-08T14:30:12.725Z,3.10
2022-10-08T14:32:39.904Z,4.80
2022-10-08T14:35:06.946Z,3.00
2022-10-08T14:37:34.638Z,2.33
2022-10-08T14:40:01.647Z,2.70
2022-10-08T14:42:28.375Z,2.47
2022-10-08T14:44:55.053Z,2.40
2022-10-08T14:47:21.780Z,3.67
2022-10-08T14:49:48.477Z,4.70
2022-10-08T14:52:15.249Z,2.20
2022-10-08T14:54:42.503Z,5.80
2022-10-08T14:57:09.326Z,2.00
2022-10-08T14:59:40.036Z,2.10
2022-10-08T15:02:09.556Z,4.07
2022-10-08T15:04:36.351Z,2.47
2022-10-08T15:07:03.308Z,3.50
2022-10-08T15:09:31.347Z,3.50
2022-10-08T15:11:58.245Z,3.33
2022-10-08T15:14:25.002Z,3.20
2022-10-08T15:16:51.757Z,2.90
2022-10-08T15:19:22.748Z,2.10
2022-10-08T15:21:50.839Z,2.60
2022-10-08T15:24:17.723Z,2.87
2022-10-08T15:26:44.440Z,2.67
2022-10-08T15:29:11.784Z,2.77
2022-10-08T15:31:38.862Z,5.20
2022-10-08T15:34:05.834Z,2.90
2022-10-08T15:36:37.696Z,4.87
2022-10-08T15:39:15.427Z,3.23
2022-10-08T15:41:45.189Z,2.20
2022-10-08T15:44:21.029Z,3.00
2022-10-08T15:46:50.412Z,3.60
2022-10-08T15:49:17.173Z,3.03
2022-10-08T15:51:43.978Z,4.63
2022-10-08T15:54:10.665Z,2.90
2022-10-08T15:56:37.486Z,3.87
2022-10-08T15:59:04.636Z,4.50
2022-10-08T16:01:31.564Z,3.60
2022-10-08T16:03:58.860Z,4.03
2022-10-08T16:06:34.309Z,2.63
2022-10-08T16:09:01.511Z,2.53
2022-10-08T16:11:31.454Z,3.97
2022-10-08T16:14:08.346Z,4.47
2022-10-08T16:16:36.343Z,2.37
2022-10-08T16:25:26.475Z,3.17
2022-10-08T16:27:53.208Z,6.13
2022-10-08T16:30:19.874Z,3.23
2022-10-08T16:32:46.821Z,4.03
2022-10-08T16:35:13.913Z,5.30
2022-10-08T16:37:40.629Z,7.97
2022-10-08T16:40:07.983Z,3.73
2022-10-08T16:42:34.718Z,6.90
2022-10-08T16:45:01.538Z,3.83
2022-10-08T16:47:28.488Z,7.33
2022-10-08T16:49:55.552Z,4.80
2022-10-08T16:52:22.241Z,3.57
2022-10-08T16:54:54.510Z,5.30
2022-10-08T16:57:21.572Z,8.17
2022-10-08T16:59:49.393Z,12.53
2022-10-08T17:02:16.350Z,8.07
2022-10-08T17:04:43.164Z,5.70
2022-10-08T17:07:09.918Z,6.23
2022-10-08T17:09:36.925Z,4.60
2022-10-08T17:12:03.876Z,7.90
2022-10-08T17:14:33.040Z,9.17
2022-10-08T17:17:00.063Z,8.23
2022-10-08T17:19:26.851Z,15.80
2022-10-08T17:21:53.599Z,17.10
2022-10-08T17:24:20.343Z,11.97
2022-10-08T17:26:49.056Z,18.13
2022-10-08T17:29:16.940Z,35.30
2022-10-08T17:31:43.920Z,17.30
2022-10-08T17:34:11.499Z,15.93
2022-10-08T17:36:41.573Z,31.67
2022-10-08T17:39:12.711Z,13.03
2022-10-08T17:41:41.442Z,9.83
2022-10-08T17:44:09.579Z,11.67
2022-10-08T17:46:47.365Z,19.43
2022-10-08T17:49:16.593Z,28.33
2022-10-08T17:51:44.111Z,23.90
2022-10-08T17:54:13.760Z,30.10
2022-10-08T17:56:40.974Z,26.47
2022-10-08T17:59:08.143Z,21.37
2022-10-08T18:01:39.180Z,21.47
2022-10-08T18:04:11.025Z,12.90
2022-10-08T18:06:43.337Z,14.57
2022-10-08T18:09:19.045Z,11.03
2022-10-08T18:11:52.035Z,21.77
2022-10-08T18:14:19.841Z,19.73
2022-10-08T18:16:48.391Z,8.63
2022-10-08T18:19:15.833Z,14.60
2022-10-08T18:21:42.650Z,18.40
2022-10-08T18:24:09.562Z,12.43
2022-10-08T18:26:37.016Z,10.07
2022-10-08T18:29:09.142Z,10.40
2022-10-08T18:31:37.848Z,9.13
2022-10-08T18:34:07.624Z,13.50
2022-10-08T18:36:36.628Z,12.53
2022-10-08T18:39:17.620Z,8.37
2022-10-08T18:41:46.641Z,8.70
2022-10-08T18:44:16.591Z,13.13
2022-10-08T18:46:45.124Z,9.97
2022-10-08T18:49:20.173Z,11.20
2022-10-08T18:51:49.977Z,9.17
2022-10-08T18:54:16.888Z,9.20
2022-10-08T18:56:43.659Z,13.00
2022-10-08T18:59:13.172Z,16.27
2022-10-08T19:01:42.152Z,19.83
2022-10-08T19:04:20.944Z,19.33
2022-10-08T19:06:49.584Z,12.20
2022-10-08T19:09:16.821Z,8.33
2022-10-08T19:11:52.799Z,9.13
2022-10-08T19:14:22.203Z,13.33
2022-10-08T19:16:49.679Z,9.33
2022-10-08T19:19:22.025Z,13.30
2022-10-08T19:21:49.806Z,8.03
2022-10-08T19:24:18.803Z,9.97
2022-10-08T19:26:46.747Z,8.93
2022-10-08T19:29:16.326Z,9.40
2022-10-08T19:31:47.522Z,10.30
2022-10-08T19:34:20.716Z,8.50
2022-10-08T19:36:48.121Z,11.73
2022-10-08T19:39:27.189Z,7.83
2022-10-08T19:41:54.386Z,6.30
2022-10-08T19:44:21.465Z,9.70
2022-10-08T19:46:48.327Z,12.23
2022-10-08T19:49:15.564Z,21.93
2022-10-08T19:51:42.860Z,48.30
2022-10-08T19:54:10.405Z,22.73
2022-10-08T19:56:37.264Z,34.40
2022-10-08T19:59:04.794Z,16.23
2022-10-08T20:01:34.452Z,18.43
2022-10-08T20:04:03.449Z,19.40
2022-10-08T20:06:32.270Z,20.93
2022-10-08T20:09:01.516Z,12.97
2022-10-08T20:11:30.355Z,9.97
2022-10-08T20:13:58.054Z,9.37
2022-10-08T20:16:36.383Z,19.37
2022-10-08T20:19:06.264Z,15.17
2022-10-08T20:21:35.851Z,14.87
2022-10-08T20:24:03.114Z,15.00
2022-10-08T20:26:32.803Z,19.07
2022-10-08T20:29:21.242Z,38.47
2022-10-08T20:31:55.020Z,30.03
2022-10-08T20:34:27.130Z,14.97
2022-10-08T20:36:54.608Z,11.37
2022-10-08T20:39:22.946Z,16.10
2022-10-08T20:41:50.613Z,12.43
2022-10-08T20:44:17.884Z,9.60
2022-10-08T20:46:44.955Z,11.50
2022-10-08T20:49:13.165Z,7.63
2022-10-08T20:51:41.380Z,8.93
2022-10-08T20:54:10.809Z,6.77
2022-10-08T20:56:40.275Z,9.03
2022-10-08T20:59:09.185Z,8.40
2022-10-08T21:01:38.261Z,8.43
2022-10-08T21:04:06.840Z,10.70
2022-10-08T21:06:42.639Z,9.50
2022-10-08T21:09:09.814Z,8.97
2022-10-08T21:11:37.315Z,14.70
2022-10-08T21:14:06.009Z,12.90
2022-10-08T21:16:36.404Z,10.97
2022-10-08T21:19:05.938Z,10.83
2022-10-08T21:21:33.621Z,11.07
2022-10-08T21:24:00.964Z,10.73
2022-10-08T21:26:30.493Z,15.87
2022-10-08T21:29:02.176Z,18.60
2022-10-08T21:31:31.429Z,22.57
2022-10-08T21:33:58.998Z,15.33
2022-10-08T21:36:31.399Z,13.93
2022-10-08T21:38:59.747Z,22.57
2022-10-08T21:41:30.773Z,17.53
2022-10-08T21:44:00.261Z,11.90
2022-10-08T21:46:29.732Z,13.60
2022-10-08T21:48:59.350Z,8.70
2022-10-08T21:51:27.566Z,10.60
2022-10-08T21:53:56.787Z,8.90
2022-10-08T21:56:27.170Z,14.13
2022-10-08T21:58:56.553Z,26.47
2022-10-08T22:01:25.396Z,19.73
2022-10-08T22:03:56.137Z,14.40
2022-10-08T22:06:23.790Z,9.50
2022-10-08T22:08:51.300Z,11.50
2022-10-08T22:11:19.194Z,12.80
2022-10-08T22:13:46.652Z,9.17
2022-10-08T22:16:15.378Z,8.00
2022-10-08T22:18:43.111Z,8.50
2022-10-08T22:21:17.543Z,13.00
2022-10-08T22:23:44.769Z,8.63
2022-10-08T22:26:17.213Z,9.17
2022-10-08T22:28:44.481Z,13.87
2022-10-08T22:31:13.524Z,18.87
2022-10-08T22:33:40.405Z,12.70
2022-10-08T22:36:13.400Z,16.23
2022-10-08T22:38:41.870Z,12.53
2022-10-08T22:41:18.011Z,11.07
2022-10-08T22:43:45.532Z,11.10
2022-10-08T22:46:19.279Z,11.90
2022-10-08T22:48:47.599Z,10.00
2022-10-08T22:51:19.886Z,7.90
2022-10-08T22:53:47.208Z,8.40
2022-10-08T22:56:19.973Z,7.83
2022-10-08T22:58:47.753Z,7.37
2022-10-08T23:01:18.270Z,9.00
2022-10-08T23:03:45.492Z,8.70
2022-10-08T23:06:24.064Z,6.57
2022-10-08T23:08:57.047Z,8.00
2022-10-08T23:11:24.487Z,7.27
2022-10-08T23:13:56.885Z,15.20
2022-10-08T23:16:25.313Z,11.37
2022-10-08T23:19:01.049Z,8.23
2022-10-08T23:21:28.339Z,6.57
2022-10-08T23:23:55.998Z,9.13
2022-10-08T23:26:23.807Z,7.73
2022-10-08T23:28:52.502Z,7.83
2022-10-08T23:31:22.038Z,8.97
2022-10-08T23:33:50.679Z,6.73
2022-10-08T23:36:26.556Z,8.43
2022-10-08T23:38:53.404Z,6.33
2022-10-08T23:41:20.289Z,8.63
2022-10-08T23:43:48.540Z,7.60
2022-10-08T23:46:17.736Z,7.10
2022-10-08T23:48:44.949Z,7.67
2022-10-08T23:51:13.203Z,8.10
2022-10-08T23:53:40.464Z,9.77
2022-10-08T23:56:07.661Z,7.40
2022-10-08T23:58:34.817Z,6.03
